Bend Municipal Airport


Codes: KBDN/
Name: Bend Municipal Airport
City: Bend
Country: United States
Elevation: 3460 ft.

Photos at Bend Municipal Airport


   Photos courtesy of SpottingLog. You can add your own sightings and photos by signing up for a free trial today.



No photos found.

Weather at Bend Municipal Airport


Time (UTC)DescriptionTempratureWindCloud coverageVisibilityPressureHumidity
18-Apr-2024 00:00Clear Sky10°C9 mph, N0%10000m1025hPa29%
18-Apr-2024 03:00Clear Sky8°C11 mph, N2%10000m1025hPa35%
18-Apr-2024 06:00Clear Sky3°C4 mph, NW2%10000m1027hPa49%
18-Apr-2024 09:00Clear Sky1°C4 mph, NW0%10000m1027hPa56%
18-Apr-2024 12:00Clear Sky0°C2 mph, NW1%10000m1027hPa59%
18-Apr-2024 15:00Scattered Clouds3°C2 mph, NE27%10000m1026hPa48%
18-Apr-2024 18:00Scattered Clouds8°C7 mph, E44%10000m1022hPa30%
18-Apr-2024 21:00Few Clouds12°C7 mph, NE23%10000m1018hPa23%
19-Apr-2024 00:00Few Clouds13°C13 mph, N14%10000m1017hPa24%
19-Apr-2024 03:00Clear Sky8°C13 mph, NW1%10000m1019hPa40%
19-Apr-2024 06:00Clear Sky5°C11 mph, NW1%10000m1022hPa50%
19-Apr-2024 09:00Scattered Clouds3°C7 mph, NW35%10000m1022hPa55%
19-Apr-2024 12:00Broken Clouds1°C4 mph, NW54%10000m1022hPa59%
19-Apr-2024 15:00Overcast Clouds3°C2 mph, N89%10000m1022hPa53%
19-Apr-2024 18:00Overcast Clouds7°C7 mph, NE95%10000m1020hPa44%
19-Apr-2024 21:00Broken Clouds11°C7 mph, N78%10000m1017hPa37%
20-Apr-2024 00:00Scattered Clouds13°C11 mph, N44%10000m1016hPa35%
20-Apr-2024 03:00Clear Sky9°C11 mph, N4%10000m1017hPa53%
20-Apr-2024 06:00Clear Sky6°C9 mph, NW5%10000m1019hPa54%
20-Apr-2024 09:00Broken Clouds5°C7 mph, W52%10000m1020hPa56%
20-Apr-2024 12:00Broken Clouds3°C2 mph, W53%10000m1020hPa59%
20-Apr-2024 15:00Clear Sky6°C0 mph, S6%10000m1020hPa51%
20-Apr-2024 18:00Clear Sky13°C4 mph, NE3%10000m1017hPa37%
20-Apr-2024 21:00Broken Clouds17°C11 mph, N80%10000m1015hPa32%
21-Apr-2024 00:00Overcast Clouds17°C13 mph, W90%10000m1015hPa33%
21-Apr-2024 03:00Overcast Clouds10°C11 mph, W86%10000m1020hPa52%
21-Apr-2024 06:00Overcast Clouds6°C9 mph, W93%10000m1023hPa62%
21-Apr-2024 09:00Overcast Clouds5°C7 mph, W100%10000m1024hPa65%
21-Apr-2024 12:00Overcast Clouds3°C2 mph, NW98%10000m1026hPa76%
21-Apr-2024 15:00Overcast Clouds3°C2 mph, N87%10000m1026hPa68%
21-Apr-2024 18:00Overcast Clouds8°C4 mph, NE87%10000m1023hPa40%
21-Apr-2024 21:00Broken Clouds12°C9 mph, NE83%10000m1019hPa29%
22-Apr-2024 00:00Overcast Clouds13°C9 mph, NE91%10000m1017hPa27%
22-Apr-2024 03:00Overcast Clouds10°C9 mph, N100%10000m1017hPa38%
22-Apr-2024 06:00Overcast Clouds7°C4 mph, NW100%10000m1018hPa46%
22-Apr-2024 09:00Overcast Clouds5°C2 mph, NW100%10000m1017hPa51%
22-Apr-2024 12:00Overcast Clouds4°C2 mph, NW100%10000m1016hPa54%
22-Apr-2024 15:00Overcast Clouds6°C2 mph, N99%10000m1015hPa49%
22-Apr-2024 18:00Overcast Clouds11°C7 mph, NE100%10000m1012hPa38%
22-Apr-2024 21:00Overcast Clouds15°C9 mph, N100%10000m1008hPa33%